createdAt,value
2023-03-17T00:00:39.519Z,9.70
2023-03-17T00:03:07.468Z,9.60
2023-03-17T00:05:36.148Z,9.60
2023-03-17T00:08:06.302Z,9.60
2023-03-17T00:10:34.254Z,9.60
2023-03-17T00:13:03.792Z,9.60
2023-03-17T00:15:31.794Z,9.60
2023-03-17T00:17:59.790Z,9.60
2023-03-17T00:20:28.944Z,9.70
2023-03-17T00:22:58.464Z,9.70
2023-03-17T00:25:27.310Z,9.70
2023-03-17T00:27:55.442Z,9.70
2023-03-17T00:30:25.010Z,9.70
2023-03-17T00:32:53.407Z,9.60
2023-03-17T00:35:23.018Z,9.60
2023-03-17T00:37:52.417Z,9.50
2023-03-17T00:40:22.350Z,9.50
2023-03-17T00:42:51.123Z,9.50
2023-03-17T00:45:19.696Z,9.50
2023-03-17T00:47:49.252Z,9.50
2023-03-17T00:50:18.445Z,9.60
2023-03-17T00:52:47.141Z,9.60
2023-03-17T00:55:15.682Z,9.60
2023-03-17T00:57:43.850Z,9.60
2023-03-17T01:00:23.049Z,9.60
2023-03-17T01:02:52.604Z,9.60
2023-03-17T01:05:21.028Z,9.60
2023-03-17T01:07:52.935Z,9.60
2023-03-17T01:10:22.600Z,9.50
2023-03-17T01:12:51.352Z,9.50
2023-03-17T01:15:19.757Z,9.50
2023-03-17T01:17:47.788Z,9.50
2023-03-17T01:20:19.468Z,9.60
2023-03-17T01:22:47.908Z,9.60
2023-03-17T01:25:17.198Z,9.50
2023-03-17T01:27:45.684Z,9.60
2023-03-17T01:30:23.799Z,9.60
2023-03-17T01:32:51.874Z,9.60
2023-03-17T01:35:21.542Z,9.60
2023-03-17T01:37:50.509Z,9.50
2023-03-17T01:40:20.292Z,9.50
2023-03-17T01:42:49.670Z,9.50
2023-03-17T01:45:54.958Z,9.40
2023-03-17T01:48:23.533Z,9.50
2023-03-17T01:50:53.320Z,9.50
2023-03-17T01:53:21.439Z,9.50
2023-03-17T01:55:49.520Z,9.60
2023-03-17T01:58:17.812Z,9.60
2023-03-17T02:00:46.557Z,9.60
2023-03-17T02:03:15.664Z,9.60
2023-03-17T02:05:44.169Z,9.60
2023-03-17T02:08:14.806Z,9.60
2023-03-17T02:10:43.440Z,9.50
2023-03-17T02:13:11.948Z,9.50
2023-03-17T02:15:40.936Z,9.40
2023-03-17T02:18:09.115Z,9.40
2023-03-17T02:21:14.303Z,9.50
2023-03-17T02:23:43.878Z,9.50
2023-03-17T02:26:12.678Z,9.50
2023-03-17T02:28:41.070Z,9.50
2023-03-17T02:31:09.517Z,9.50
2023-03-17T02:33:37.578Z,9.50
2023-03-17T02:36:06.255Z,9.60
2023-03-17T02:38:34.295Z,9.50
2023-03-17T02:41:03.796Z,9.50
2023-03-17T02:43:31.859Z,9.40
2023-03-17T02:45:59.991Z,9.40
2023-03-17T02:48:28.108Z,9.40
2023-03-17T02:50:56.188Z,9.30
2023-03-17T02:53:24.286Z,9.40
2023-03-17T02:55:52.320Z,9.40
2023-03-17T02:58:21.743Z,9.40
2023-03-17T03:00:53.200Z,9.40
2023-03-17T03:03:21.260Z,9.50
2023-03-17T03:05:49.309Z,9.50
2023-03-17T03:08:17.540Z,9.50
2023-03-17T03:10:45.802Z,9.50
2023-03-17T03:13:13.836Z,9.50
2023-03-17T03:15:43.950Z,9.50
2023-03-17T03:18:12.620Z,9.40
2023-03-17T03:20:43.173Z,9.40
2023-03-17T03:23:11.445Z,9.40
2023-03-17T03:25:39.648Z,9.40
2023-03-17T03:28:08.760Z,9.50
2023-03-17T03:30:37.114Z,9.50
2023-03-17T03:33:06.650Z,9.50
2023-03-17T03:35:35.399Z,9.50
2023-03-17T03:38:03.620Z,9.50
2023-03-17T03:40:32.169Z,9.60
2023-03-17T03:43:07.528Z,9.50
2023-03-17T03:45:41.015Z,9.50
2023-03-17T03:48:10.501Z,9.40
2023-03-17T03:50:38.653Z,9.40
2023-03-17T03:53:07.307Z,9.40
2023-03-17T03:55:35.319Z,9.40
2023-03-17T03:58:03.370Z,9.40
2023-03-17T04:00:32.410Z,9.50
2023-03-17T04:03:01.374Z,9.50
2023-03-17T04:05:30.975Z,9.50
2023-03-17T04:07:59.187Z,9.50
2023-03-17T04:10:27.378Z,9.50
2023-03-17T04:12:55.836Z,9.50
2023-03-17T04:17:59.894Z,9.40
2023-03-17T04:20:28.163Z,9.40
2023-03-17T04:22:57.880Z,9.30
2023-03-17T04:25:26.050Z,9.30
2023-03-17T04:27:54.062Z,9.40
2023-03-17T04:30:22.122Z,9.40
2023-03-17T04:32:50.136Z,9.40
2023-03-17T04:35:19.121Z,9.40
2023-03-17T04:37:48.516Z,9.50
2023-03-17T04:40:18.775Z,9.50
2023-03-17T04:42:46.823Z,9.50
2023-03-17T04:45:15.529Z,9.40
2023-03-17T04:47:43.621Z,9.40
2023-03-17T04:50:12.611Z,9.40
2023-03-17T04:52:40.647Z,9.30
2023-03-17T04:55:09.571Z,9.30
2023-03-17T04:57:38.987Z,9.30
2023-03-17T05:00:08.323Z,9.30
2023-03-17T05:02:38.969Z,9.30
2023-03-17T05:05:07.500Z,9.40
2023-03-17T05:07:35.592Z,9.40
2023-03-17T05:10:03.718Z,9.40
2023-03-17T05:12:31.742Z,9.40
2023-03-17T05:15:01.153Z,9.40
2023-03-17T05:17:29.201Z,9.40
2023-03-17T05:19:57.247Z,9.40
2023-03-17T05:22:25.249Z,9.30
2023-03-17T05:24:53.271Z,9.30
2023-03-17T05:27:21.561Z,9.30
2023-03-17T05:29:49.859Z,9.30
2023-03-17T05:32:19.867Z,9.30
2023-03-17T05:34:48.056Z,9.40
2023-03-17T05:37:16.068Z,9.40
2023-03-17T05:39:44.080Z,9.40
2023-03-17T05:42:12.251Z,9.40
2023-03-17T05:44:40.301Z,9.40
2023-03-17T05:47:08.655Z,9.40
2023-03-17T05:49:38.058Z,9.50
2023-03-17T05:52:06.212Z,9.40
2023-03-17T05:54:34.190Z,9.30
2023-03-17T05:57:02.167Z,9.30
2023-03-17T05:59:30.156Z,9.30
2023-03-17T06:01:58.139Z,9.30
2023-03-17T06:04:26.489Z,9.30
2023-03-17T06:06:55.891Z,9.30
2023-03-17T06:09:24.028Z,9.40
2023-03-17T06:11:52.046Z,9.40
2023-03-17T06:14:20.067Z,9.40
2023-03-17T06:16:48.110Z,9.40
2023-03-17T06:19:16.769Z,9.50
2023-03-17T06:21:44.801Z,9.50
2023-03-17T06:24:14.314Z,9.50
2023-03-17T06:26:42.492Z,9.50
2023-03-17T06:29:11.795Z,9.50
2023-03-17T06:31:39.916Z,9.60
2023-03-17T06:34:08.290Z,9.60
2023-03-17T06:36:38.559Z,9.70
2023-03-17T06:39:06.682Z,9.70
2023-03-17T06:41:36.132Z,9.80
2023-03-17T06:44:05.388Z,9.80
2023-03-17T06:46:33.593Z,9.90
2023-03-17T06:49:03.386Z,9.90
2023-03-17T06:51:32.458Z,10.00
2023-03-17T06:54:00.871Z,10.00
2023-03-17T06:56:30.584Z,10.10
2023-03-17T06:59:00.296Z,10.10
2023-03-17T07:01:28.759Z,10.20
2023-03-17T07:03:56.818Z,10.30
2023-03-17T07:06:24.841Z,10.30
2023-03-17T07:08:52.863Z,10.40
2023-03-17T07:11:23.588Z,10.40
2023-03-17T07:13:52.054Z,10.50
2023-03-17T07:16:21.518Z,10.60
2023-03-17T07:18:49.694Z,10.60
2023-03-17T07:21:17.759Z,10.70
2023-03-17T07:23:45.786Z,10.70
2023-03-17T07:26:13.917Z,10.80
2023-03-17T07:28:42.045Z,10.80
2023-03-17T07:31:14.079Z,10.90
2023-03-17T07:33:43.535Z,10.90
2023-03-17T07:36:11.606Z,10.90
2023-03-17T07:38:39.911Z,11.00
2023-03-17T07:41:10.189Z,11.00
2023-03-17T07:43:38.985Z,11.10
2023-03-17T07:46:07.529Z,11.10
2023-03-17T07:48:38.063Z,11.20
2023-03-17T07:51:07.583Z,11.20
2023-03-17T07:53:36.007Z,11.20
2023-03-17T07:56:04.104Z,11.30
2023-03-17T07:58:32.569Z,11.30
2023-03-17T08:01:00.704Z,11.40
2023-03-17T08:03:30.591Z,11.40
2023-03-17T08:05:59.535Z,11.40
2023-03-17T08:08:29.260Z,11.40
2023-03-17T08:10:59.766Z,11.40
2023-03-17T08:13:27.854Z,11.50
2023-03-17T08:15:55.936Z,11.50
2023-03-17T08:18:24.038Z,11.50
2023-03-17T08:20:52.418Z,11.50
2023-03-17T08:23:20.572Z,11.50
2023-03-17T08:25:50.129Z,11.50
2023-03-17T08:28:18.151Z,11.50
2023-03-17T08:30:50.396Z,11.50
2023-03-17T08:33:18.714Z,11.50
2023-03-17T08:35:47.060Z,11.50
2023-03-17T08:38:15.178Z,11.50
2023-03-17T08:40:43.188Z,11.50
2023-03-17T08:43:12.629Z,11.60
2023-03-17T08:45:40.751Z,11.60
2023-03-17T08:48:09.632Z,11.60
2023-03-17T08:50:37.845Z,11.60
2023-03-17T08:53:05.866Z,11.60
2023-03-17T08:55:33.853Z,11.70
2023-03-17T08:58:02.710Z,11.70
2023-03-17T09:00:32.550Z,11.70
2023-03-17T09:03:00.789Z,11.70
2023-03-17T09:05:29.473Z,11.70
2023-03-17T09:07:57.558Z,11.70
2023-03-17T09:10:25.667Z,11.80
2023-03-17T09:12:54.479Z,11.80
2023-03-17T09:15:22.547Z,11.80
2023-03-17T09:17:51.964Z,11.80
2023-03-17T09:20:20.596Z,11.90
2023-03-17T09:22:49.186Z,11.90
2023-03-17T09:25:17.410Z,11.90
2023-03-17T09:27:45.380Z,11.80
2023-03-17T09:30:14.195Z,11.80
2023-03-17T09:32:42.427Z,11.90
2023-03-17T09:35:12.015Z,11.90
2023-03-17T09:37:40.100Z,11.90
2023-03-17T09:40:09.355Z,11.90
2023-03-17T09:42:44.486Z,11.90
2023-03-17T09:45:16.647Z,11.90
2023-03-17T09:47:57.357Z,11.90
2023-03-17T09:50:28.441Z,11.90
2023-03-17T09:52:56.915Z,12.00
2023-03-17T09:55:27.755Z,12.00
2023-03-17T09:57:56.952Z,12.00
2023-03-17T10:00:27.441Z,11.90
2023-03-17T10:02:55.629Z,11.90
2023-03-17T10:05:26.450Z,11.90
2023-03-17T10:07:59.456Z,11.80
2023-03-17T10:10:31.307Z,11.90
2023-03-17T10:13:02.294Z,11.90
2023-03-17T10:15:34.719Z,11.80
2023-03-17T10:18:03.546Z,11.90
2023-03-17T10:20:34.359Z,11.90
2023-03-17T10:23:03.733Z,11.90
2023-03-17T10:25:32.935Z,11.90
2023-03-17T10:28:07.018Z,11.90
2023-03-17T10:30:36.449Z,11.80
2023-03-17T10:33:07.071Z,11.80
2023-03-17T10:35:39.454Z,11.80
2023-03-17T10:38:15.933Z,11.80
2023-03-17T10:40:47.839Z,11.80
2023-03-17T10:43:20.660Z,11.80
2023-03-17T10:45:55.875Z,11.80
2023-03-17T10:48:23.905Z,11.80
2023-03-17T10:50:54.400Z,11.80
2023-03-17T10:53:28.340Z,11.80
2023-03-17T10:55:58.865Z,11.80
2023-03-17T10:58:37.263Z,11.80
2023-03-17T11:01:07.824Z,11.70
2023-03-17T11:03:38.858Z,11.70
2023-03-17T11:06:10.174Z,11.70
2023-03-17T11:08:40.225Z,11.80
2023-03-17T11:11:10.265Z,11.70
2023-03-17T11:13:38.292Z,11.80
2023-03-17T11:16:10.675Z,11.80
2023-03-17T11:18:38.930Z,11.80
2023-03-17T11:21:10.216Z,11.70
2023-03-17T11:23:53.299Z,11.80
2023-03-17T11:26:40.957Z,11.70
2023-03-17T11:29:27.954Z,11.70
2023-03-17T11:31:59.463Z,11.60
2023-03-17T11:34:34.020Z,11.60
2023-03-17T11:37:07.471Z,11.60
2023-03-17T11:39:38.933Z,11.60
2023-03-17T11:42:09.537Z,11.60
2023-03-17T11:44:54.175Z,11.70
2023-03-17T11:47:50.627Z,11.60
2023-03-17T11:50:24.539Z,11.70
2023-03-17T11:53:00.043Z,11.70
2023-03-17T11:55:31.590Z,11.70
2023-03-17T11:58:01.072Z,11.70
2023-03-17T12:00:31.068Z,11.70
2023-03-17T12:03:01.111Z,11.70
2023-03-17T12:05:29.962Z,11.70
2023-03-17T12:08:00.730Z,11.70
2023-03-17T12:10:34.079Z,11.70
2023-03-17T12:13:04.895Z,11.70
2023-03-17T12:15:36.402Z,11.70
2023-03-17T12:18:06.933Z,11.70
2023-03-17T12:20:48.164Z,11.70
2023-03-17T12:23:20.097Z,11.70
2023-03-17T12:25:51.277Z,11.70
2023-03-17T12:28:22.952Z,11.70
2023-03-17T12:30:54.540Z,11.70
2023-03-17T12:33:25.523Z,11.70
2023-03-17T12:35:53.842Z,11.70
2023-03-17T12:38:26.186Z,11.70
2023-03-17T12:41:08.924Z,11.70
2023-03-17T12:43:38.770Z,11.70
2023-03-17T12:46:29.926Z,11.70
2023-03-17T12:49:28.028Z,11.70
2023-03-17T12:52:03.222Z,11.80
2023-03-17T12:54:33.470Z,11.80
2023-03-17T12:57:03.018Z,11.80
2023-03-17T12:59:34.104Z,11.70
2023-03-17T13:02:15.556Z,11.70
2023-03-17T13:04:50.463Z,11.70
2023-03-17T13:07:20.060Z,11.70
2023-03-17T13:09:50.739Z,11.70
2023-03-17T13:12:56.589Z,11.70
2023-03-17T13:15:30.896Z,11.70
2023-03-17T13:18:23.412Z,11.80
2023-03-17T13:20:53.687Z,11.80
2023-03-17T13:23:22.307Z,11.80
2023-03-17T13:25:53.739Z,11.80
2023-03-17T13:28:27.093Z,11.80
2023-03-17T13:31:09.818Z,11.70
2023-03-17T13:33:42.210Z,11.70
2023-03-17T13:36:28.622Z,11.70
2023-03-17T13:39:22.927Z,11.70
2023-03-17T13:42:17.770Z,11.70
2023-03-17T13:45:09.638Z,11.70
2023-03-17T13:47:38.412Z,11.70
2023-03-17T13:50:09.243Z,11.70
2023-03-17T13:52:40.897Z,11.70
2023-03-17T13:55:39.689Z,11.80
2023-03-17T13:58:36.859Z,11.80
2023-03-17T14:01:07.325Z,11.80
2023-03-17T14:03:39.016Z,11.70
2023-03-17T14:06:08.829Z,11.70
2023-03-17T14:08:37.488Z,11.70
2023-03-17T14:11:08.959Z,11.70
2023-03-17T14:13:41.431Z,11.80
2023-03-17T14:16:15.325Z,11.80
2023-03-17T14:18:43.959Z,11.80
2023-03-17T14:21:22.217Z,11.80
2023-03-17T14:23:56.225Z,11.80
2023-03-17T14:26:24.897Z,11.80
2023-03-17T14:28:54.363Z,11.80
2023-03-17T14:31:23.866Z,11.80
2023-03-17T14:33:53.153Z,11.70
2023-03-17T14:36:21.416Z,11.70
2023-03-17T14:38:50.827Z,11.80
2023-03-17T14:41:19.881Z,11.80
2023-03-17T14:43:48.175Z,11.80
2023-03-17T14:46:18.534Z,11.80
2023-03-17T14:48:48.600Z,11.80
2023-03-17T14:51:24.349Z,11.80
2023-03-17T14:53:52.787Z,11.80
2023-03-17T14:56:23.175Z,11.80
2023-03-17T14:58:52.052Z,11.80
2023-03-17T15:01:23.741Z,11.70
2023-03-17T15:03:56.380Z,11.70
2023-03-17T15:06:26.062Z,11.70
2023-03-17T15:08:54.280Z,11.70
2023-03-17T15:11:33.915Z,11.70
2023-03-17T15:14:07.215Z,11.70
2023-03-17T15:16:36.982Z,11.70
2023-03-17T15:19:07.774Z,11.70
2023-03-17T15:21:39.179Z,11.70
2023-03-17T15:24:21.016Z,11.70
2023-03-17T15:26:49.092Z,11.70
2023-03-17T15:29:17.158Z,11.70
2023-03-17T15:31:46.643Z,11.60
2023-03-17T15:34:14.971Z,11.60
2023-03-17T15:36:44.182Z,11.60
2023-03-17T15:39:12.186Z,11.60
2023-03-17T15:41:40.360Z,11.60
2023-03-17T15:44:08.435Z,11.60
2023-03-17T15:46:36.784Z,11.60
2023-03-17T15:49:10.696Z,11.60
2023-03-17T15:51:38.764Z,11.70
2023-03-17T15:54:06.851Z,11.70
2023-03-17T15:56:35.634Z,11.70
2023-03-17T15:59:04.694Z,11.70
2023-03-17T16:01:33.003Z,11.70
2023-03-17T16:04:01.888Z,11.70
2023-03-17T16:06:31.343Z,11.60
2023-03-17T16:08:59.400Z,11.60
2023-03-17T16:11:28.933Z,11.60
2023-03-17T16:13:57.103Z,11.70
2023-03-17T16:16:30.424Z,11.70
2023-03-17T16:18:58.466Z,11.70
2023-03-17T16:21:26.516Z,11.70
2023-03-17T16:23:55.933Z,11.70
2023-03-17T16:26:23.969Z,11.70
2023-03-17T16:28:52.052Z,11.70
2023-03-17T16:31:22.852Z,11.70
2023-03-17T16:33:51.326Z,11.60
2023-03-17T16:36:20.413Z,11.60
2023-03-17T16:38:49.135Z,11.60
2023-03-17T16:41:20.536Z,11.60
2023-03-17T16:43:53.704Z,11.60
2023-03-17T16:46:22.375Z,11.60
2023-03-17T16:48:50.970Z,11.60
2023-03-17T16:51:19.058Z,11.60
2023-03-17T16:53:47.130Z,11.60
2023-03-17T16:56:17.347Z,11.60
2023-03-17T16:58:46.955Z,11.60
2023-03-17T17:01:16.833Z,11.60
2023-03-17T17:03:45.000Z,11.50
2023-03-17T17:06:14.392Z,11.50
2023-03-17T17:08:43.645Z,11.50
2023-03-17T17:11:13.091Z,11.60
2023-03-17T17:13:41.631Z,11.60
2023-03-17T17:16:17.454Z,11.50
2023-03-17T17:18:47.275Z,11.60
2023-03-17T17:21:18.371Z,11.50
2023-03-17T17:23:46.584Z,11.60
2023-03-17T17:26:14.724Z,11.50
2023-03-17T17:28:42.876Z,11.50
2023-03-17T17:31:12.352Z,11.40
2023-03-17T17:33:40.548Z,11.40
2023-03-17T17:36:12.924Z,11.30
2023-03-17T17:38:41.316Z,11.30
2023-03-17T17:41:10.413Z,11.30
2023-03-17T17:43:38.524Z,11.40
2023-03-17T17:46:13.417Z,11.40
2023-03-17T17:48:41.539Z,11.40
2023-03-17T17:51:09.692Z,11.40
2023-03-17T17:53:37.946Z,11.40
2023-03-17T17:56:06.416Z,11.40
2023-03-17T17:58:34.423Z,11.40
2023-03-17T18:01:04.791Z,11.40
2023-03-17T18:03:34.251Z,11.40
2023-03-17T18:06:02.529Z,11.40
2023-03-17T18:08:30.544Z,11.40
2023-03-17T18:10:58.569Z,11.40
2023-03-17T18:13:26.634Z,11.40
2023-03-17T18:15:54.672Z,11.40
2023-03-17T18:18:22.729Z,11.40
2023-03-17T18:20:53.138Z,11.40
2023-03-17T18:23:21.617Z,11.40
2023-03-17T18:25:49.692Z,11.40
2023-03-17T18:28:18.050Z,11.40
2023-03-17T18:30:46.154Z,11.40
2023-03-17T18:33:15.791Z,11.30
2023-03-17T18:35:43.978Z,11.30
2023-03-17T18:38:13.424Z,11.30
2023-03-17T18:40:41.913Z,11.30
2023-03-17T18:43:09.996Z,11.30
2023-03-17T18:45:38.076Z,11.30
2023-03-17T18:48:06.233Z,11.30
2023-03-17T18:50:34.399Z,11.30
2023-03-17T18:53:02.594Z,11.30
2023-03-17T18:55:31.982Z,11.30
2023-03-17T18:58:00.002Z,11.30
2023-03-17T19:00:28.087Z,11.20
2023-03-17T19:02:56.251Z,11.30
2023-03-17T19:05:25.686Z,11.30
2023-03-17T19:07:53.778Z,11.30
2023-03-17T19:10:21.865Z,11.30
2023-03-17T19:12:52.131Z,11.30
2023-03-17T19:15:20.761Z,11.30
2023-03-17T19:17:50.389Z,11.30
2023-03-17T19:20:19.816Z,11.30
2023-03-17T19:22:47.849Z,11.30
2023-03-17T19:25:16.626Z,11.30
2023-03-17T19:27:44.741Z,11.30
2023-03-17T19:30:14.840Z,11.20
2023-03-17T19:32:42.911Z,11.10
2023-03-17T19:35:11.721Z,11.10
2023-03-17T19:37:39.796Z,11.10
2023-03-17T19:40:09.840Z,11.10
2023-03-17T19:42:38.012Z,11.10
2023-03-17T19:45:06.968Z,11.10
2023-03-17T19:47:36.430Z,11.20
2023-03-17T19:50:07.182Z,11.20
2023-03-17T19:52:35.614Z,11.20
2023-03-17T19:55:05.449Z,11.20
2023-03-17T19:57:35.504Z,11.20
2023-03-17T20:00:03.788Z,11.20
2023-03-17T20:02:32.010Z,11.20
2023-03-17T20:05:01.514Z,11.10
2023-03-17T20:07:29.720Z,11.10
2023-03-17T20:09:58.108Z,11.10
2023-03-17T20:12:26.545Z,11.10
2023-03-17T20:14:54.643Z,11.10
2023-03-17T20:17:22.815Z,11.10
2023-03-17T20:19:50.869Z,11.20
2023-03-17T20:22:23.222Z,11.20
2023-03-17T20:24:51.625Z,11.20
2023-03-17T20:27:19.909Z,11.20
2023-03-17T20:29:48.613Z,11.10
2023-03-17T20:32:17.290Z,11.10
2023-03-17T20:34:45.442Z,11.10
2023-03-17T20:37:14.234Z,11.10
2023-03-17T20:39:44.059Z,11.10
2023-03-17T20:42:14.824Z,11.10
2023-03-17T20:44:43.030Z,11.10
2023-03-17T20:47:11.433Z,11.10
2023-03-17T20:49:39.588Z,11.10
2023-03-17T20:52:11.970Z,11.10
2023-03-17T20:54:40.480Z,11.10
2023-03-17T20:57:11.366Z,11.10
2023-03-17T20:59:39.786Z,11.10
2023-03-17T21:02:10.332Z,11.00
2023-03-17T21:04:38.392Z,11.10
2023-03-17T21:07:06.676Z,11.10
2023-03-17T21:09:34.790Z,11.00
2023-03-17T21:12:02.949Z,11.10
2023-03-17T21:14:32.669Z,11.10
2023-03-17T21:17:01.355Z,11.10
2023-03-17T21:19:29.476Z,11.10
2023-03-17T21:21:57.966Z,11.10
2023-03-17T21:24:28.188Z,11.10
2023-03-17T21:26:56.436Z,11.10
2023-03-17T21:29:24.558Z,11.00
2023-03-17T21:31:54.357Z,11.00
2023-03-17T21:34:24.389Z,11.00
2023-03-17T21:36:52.750Z,10.90
2023-03-17T21:39:20.908Z,10.90
2023-03-17T21:41:49.207Z,10.90
2023-03-17T21:44:17.902Z,11.00
2023-03-17T21:46:46.340Z,11.00
2023-03-17T21:49:16.360Z,11.00
2023-03-17T21:51:44.555Z,11.00
2023-03-17T21:54:12.622Z,11.00
2023-03-17T21:56:41.526Z,11.00
2023-03-17T21:59:11.028Z,11.00
2023-03-17T22:01:39.606Z,11.00
2023-03-17T22:04:07.874Z,11.00
2023-03-17T22:06:37.529Z,10.90
2023-03-17T22:09:05.695Z,10.90
2023-03-17T22:11:33.747Z,11.00
2023-03-17T22:14:02.042Z,11.00
2023-03-17T22:16:30.321Z,11.00
2023-03-17T22:18:58.342Z,11.00
2023-03-17T22:21:26.437Z,11.00
2023-03-17T22:23:56.009Z,11.00
2023-03-17T22:26:24.143Z,11.10
2023-03-17T22:28:52.272Z,11.00
2023-03-17T22:31:21.405Z,10.90
2023-03-17T22:33:49.549Z,10.90
2023-03-17T22:36:17.960Z,10.90
2023-03-17T22:38:46.030Z,11.00
2023-03-17T22:41:16.721Z,10.90
2023-03-17T22:43:44.864Z,11.00
2023-03-17T22:46:12.954Z,11.00
2023-03-17T22:48:41.230Z,11.00
2023-03-17T22:51:11.029Z,11.00
2023-03-17T22:53:39.347Z,11.00
2023-03-17T22:56:08.090Z,11.00
2023-03-17T22:58:37.680Z,10.90
2023-03-17T23:01:06.885Z,10.90
2023-03-17T23:03:35.133Z,10.90
2023-03-17T23:06:03.907Z,10.90
2023-03-17T23:08:35.161Z,10.90
2023-03-17T23:11:04.644Z,11.00
2023-03-17T23:13:32.689Z,11.00
2023-03-17T23:16:02.590Z,11.00
2023-03-17T23:18:30.678Z,11.00
2023-03-17T23:20:58.811Z,11.00
2023-03-17T23:23:26.911Z,11.00
2023-03-17T23:25:55.008Z,11.00
2023-03-17T23:28:23.202Z,10.90
2023-03-17T23:30:51.310Z,10.90
2023-03-17T23:33:22.767Z,10.80
2023-03-17T23:35:51.535Z,10.80
2023-03-17T23:38:21.395Z,10.80
2023-03-17T23:40:49.833Z,10.80
2023-03-17T23:43:18.080Z,10.80
2023-03-17T23:45:46.592Z,10.90
2023-03-17T23:48:15.202Z,10.90
2023-03-17T23:50:44.692Z,10.90
2023-03-17T23:53:13.293Z,10.90
2023-03-17T23:55:41.418Z,11.00
2023-03-17T23:58:09.452Z,11.00
